createdAt,value
2017-05-15T00:00:32.228Z,102179
2017-05-15T00:03:01.914Z,102183
2017-05-15T00:05:30.834Z,102179
2017-05-15T00:07:59.758Z,102183
2017-05-15T00:10:28.718Z,102183
2017-05-15T00:12:57.642Z,102185
2017-05-15T00:15:26.575Z,102189
2017-05-15T00:17:55.535Z,102189
2017-05-15T00:20:24.453Z,102188
2017-05-15T00:22:53.396Z,102189
2017-05-15T00:25:22.361Z,102190
2017-05-15T00:27:52.023Z,102192
2017-05-15T00:30:20.965Z,102201
2017-05-15T00:32:50.650Z,102195
2017-05-15T00:35:19.588Z,102189
2017-05-15T00:37:48.525Z,102199
2017-05-15T00:40:17.483Z,102191
2017-05-15T00:42:46.403Z,102195
2017-05-15T00:45:15.326Z,102200
2017-05-15T00:47:45.049Z,102186
2017-05-15T00:50:14.706Z,102201
2017-05-15T00:52:43.632Z,102202
2017-05-15T00:55:12.607Z,102209
2017-05-15T00:57:41.541Z,102211
2017-05-15T01:00:11.221Z,102213
2017-05-15T01:02:40.195Z,102207
2017-05-15T01:05:09.120Z,102225
2017-05-15T01:07:38.789Z,102216
2017-05-15T01:10:07.765Z,102224
2017-05-15T01:12:36.684Z,102233
2017-05-15T01:15:05.632Z,102237
2017-05-15T01:17:34.595Z,102235
2017-05-15T01:20:03.514Z,102234
2017-05-15T01:22:32.464Z,102240
2017-05-15T01:25:01.429Z,102251
2017-05-15T01:27:30.369Z,102244
2017-05-15T01:29:59.290Z,102240
2017-05-15T01:32:28.258Z,102252
2017-05-15T01:34:57.918Z,102247
2017-05-15T01:37:26.857Z,102253
2017-05-15T01:39:55.844Z,102258
2017-05-15T01:42:24.786Z,102258
2017-05-15T01:44:53.739Z,102263
2017-05-15T01:47:23.458Z,102263
2017-05-15T01:49:53.137Z,102268
2017-05-15T01:52:22.063Z,102271
2017-05-15T01:54:51.769Z,102271
2017-05-15T01:57:21.434Z,102265
2017-05-15T01:59:50.358Z,102264
2017-05-15T02:02:19.328Z,102275
2017-05-15T02:04:48.243Z,102274
2017-05-15T02:07:17.197Z,102274
2017-05-15T02:09:46.166Z,102274
2017-05-15T02:12:15.082Z,102281
2017-05-15T02:14:44.023Z,102272
2017-05-15T02:17:13.718Z,102283
2017-05-15T02:19:42.637Z,102284
2017-05-15T02:22:12.299Z,102292
2017-05-15T02:24:41.278Z,102295
2017-05-15T02:27:10.216Z,102301
2017-05-15T02:29:39.899Z,102297
2017-05-15T02:32:08.879Z,102301
2017-05-15T02:34:37.811Z,102304
2017-05-15T02:37:07.496Z,102305
2017-05-15T02:39:36.466Z,102303
2017-05-15T02:42:05.394Z,102309
2017-05-15T02:44:34.314Z,102312
2017-05-15T02:47:04.327Z,102308
2017-05-15T02:49:34.021Z,102317
2017-05-15T02:52:02.957Z,102317
2017-05-15T02:54:31.902Z,102318
2017-05-15T02:57:00.825Z,102322
2017-05-15T02:59:29.761Z,102317
2017-05-15T03:01:58.732Z,102327
2017-05-15T03:04:27.668Z,102336
2017-05-15T03:06:56.587Z,102337
2017-05-15T03:09:26.287Z,102330
2017-05-15T03:11:55.968Z,102341
2017-05-15T03:14:24.904Z,102337
2017-05-15T03:16:54.589Z,102349
2017-05-15T03:19:23.513Z,102345
2017-05-15T03:21:52.455Z,102347
2017-05-15T03:24:21.405Z,102345
2017-05-15T03:26:50.347Z,102350
2017-05-15T03:29:19.298Z,102357
2017-05-15T03:31:48.274Z,102361
2017-05-15T03:34:17.214Z,102358
2017-05-15T03:36:46.131Z,102366
2017-05-15T03:39:15.123Z,102371
2017-05-15T03:41:44.798Z,102381
2017-05-15T03:44:13.739Z,102370
2017-05-15T03:46:43.448Z,102371
2017-05-15T03:49:13.103Z,102376
2017-05-15T03:51:42.022Z,102377
2017-05-15T03:54:11.011Z,102384
2017-05-15T03:56:39.949Z,102389
2017-05-15T03:59:09.610Z,102395
2017-05-15T04:01:38.580Z,102402
2017-05-15T04:04:07.520Z,102392
2017-05-15T04:06:36.457Z,102397
2017-05-15T04:09:05.403Z,102397
2017-05-15T04:11:34.325Z,102392
2017-05-15T04:14:03.265Z,102404
2017-05-15T04:16:32.232Z,102400
2017-05-15T04:19:01.151Z,102400
2017-05-15T04:21:30.124Z,102403
2017-05-15T04:23:59.080Z,102402
2017-05-15T04:26:28.751Z,102407
2017-05-15T04:28:57.687Z,102408
2017-05-15T04:31:26.664Z,102420
2017-05-15T04:33:56.354Z,102416
2017-05-15T04:36:25.279Z,102423
2017-05-15T04:38:54.994Z,102416
2017-05-15T04:41:24.662Z,102423
2017-05-15T04:43:53.594Z,102422
2017-05-15T04:46:22.572Z,102427
2017-05-15T04:48:52.265Z,102432
2017-05-15T04:51:21.182Z,102423
2017-05-15T04:53:50.874Z,102432
2017-05-15T04:56:19.803Z,102436
2017-05-15T04:58:48.727Z,102434
2017-05-15T05:01:17.684Z,102434
2017-05-15T05:03:46.629Z,102440
2017-05-15T05:06:15.574Z,102444
2017-05-15T05:08:44.599Z,102455
2017-05-15T05:11:14.337Z,102459
2017-05-15T05:13:43.261Z,102465
2017-05-15T05:16:12.946Z,102454
2017-05-15T05:18:41.870Z,102471
2017-05-15T05:21:22.706Z,102463
2017-05-15T05:24:09.395Z,102469
2017-05-15T05:26:56.247Z,102470
2017-05-15T05:33:41.022Z,102480
2017-05-15T05:36:34.759Z,102480
2017-05-15T05:39:28.186Z,102483
2017-05-15T05:42:15.366Z,102492
2017-05-15T05:44:44.312Z,102486
2017-05-15T05:47:13.234Z,102483
2017-05-15T05:49:42.154Z,102485
2017-05-15T05:52:11.454Z,102497
2017-05-15T05:54:41.881Z,102496
2017-05-15T05:57:12.673Z,102496
2017-05-15T06:06:42.131Z,102518
2017-05-15T06:09:28.883Z,102511
2017-05-15T06:15:40.498Z,102520
2017-05-15T06:18:36.963Z,102527
2017-05-15T06:21:05.936Z,102531
2017-05-15T06:23:52.721Z,102536
2017-05-15T06:26:49.394Z,102537
2017-05-15T06:29:18.326Z,102530
2017-05-15T06:31:47.271Z,102535
2017-05-15T06:34:16.226Z,102538
2017-05-15T06:36:45.160Z,102527
2017-05-15T06:39:31.990Z,102539
2017-05-15T06:42:19.175Z,102541
2017-05-15T06:44:48.117Z,102548
2017-05-15T06:47:17.037Z,102546
2017-05-15T06:49:45.972Z,102557
2017-05-15T06:52:14.926Z,102548
2017-05-15T06:54:43.849Z,102562
2017-05-15T06:57:12.790Z,102561
2017-05-15T06:59:41.729Z,102575
2017-05-15T07:02:10.684Z,102575
2017-05-15T07:04:39.623Z,102570
2017-05-15T07:07:07.845Z,102581
2017-05-15T07:09:36.785Z,102585
2017-05-15T07:12:05.722Z,102583
2017-05-15T07:14:34.662Z,102587
2017-05-15T07:17:03.582Z,102587
2017-05-15T07:19:33.262Z,102589
2017-05-15T07:22:02.221Z,102592
2017-05-15T07:24:31.155Z,102596
2017-05-15T07:27:00.069Z,102593
2017-05-15T07:29:29.754Z,102598
2017-05-15T07:31:58.693Z,102591
2017-05-15T07:34:27.625Z,102594
2017-05-15T07:36:56.575Z,102600
2017-05-15T07:39:25.491Z,102610
2017-05-15T07:41:54.423Z,102607
2017-05-15T07:44:23.390Z,102613
2017-05-15T07:46:52.324Z,102608
2017-05-15T07:49:22.005Z,102623
2017-05-15T07:51:50.957Z,102623
2017-05-15T07:54:19.868Z,102628
2017-05-15T07:56:48.815Z,102625
2017-05-15T07:59:18.525Z,102635
2017-05-15T08:01:48.184Z,102635
2017-05-15T08:04:17.136Z,102638
2017-05-15T08:06:46.822Z,102638
2017-05-15T08:09:15.741Z,102647
2017-05-15T08:11:45.414Z,102647
2017-05-15T08:14:14.378Z,102635
2017-05-15T08:16:43.295Z,102633
2017-05-15T08:19:12.230Z,102640
2017-05-15T08:21:41.179Z,102643
2017-05-15T08:24:10.115Z,102652
2017-05-15T08:26:39.038Z,102665
2017-05-15T08:29:07.985Z,102657
2017-05-15T08:31:37.647Z,102651
2017-05-15T08:34:06.581Z,102640
2017-05-15T08:36:35.537Z,102650
2017-05-15T08:39:03.981Z,102642
2017-05-15T08:41:32.924Z,102653
2017-05-15T08:44:01.871Z,102652
2017-05-15T08:46:30.796Z,102662
2017-05-15T08:48:59.745Z,102671
2017-05-15T08:51:28.807Z,102671
2017-05-15T08:53:57.276Z,102676
2017-05-15T08:56:26.216Z,102682
2017-05-15T08:58:55.473Z,102670
2017-05-15T09:01:24.418Z,102680
2017-05-15T09:03:53.353Z,102689
2017-05-15T09:06:22.306Z,102681
2017-05-15T09:08:51.507Z,102695
2017-05-15T09:11:20.723Z,102691
2017-05-15T09:13:49.666Z,102695
2017-05-15T09:16:18.114Z,102694
2017-05-15T09:18:46.566Z,102692
2017-05-15T09:21:15.049Z,102692
2017-05-15T09:23:43.538Z,102684
2017-05-15T09:26:12.001Z,102680
2017-05-15T09:28:41.225Z,102679
2017-05-15T09:31:09.678Z,102686
2017-05-15T09:33:38.896Z,102690
2017-05-15T09:36:07.378Z,102690
2017-05-15T09:38:36.290Z,102692
2017-05-15T09:41:04.737Z,102694
2017-05-15T09:43:33.977Z,102704
2017-05-15T09:46:02.425Z,102697
2017-05-15T09:48:30.896Z,102695
2017-05-15T09:51:00.116Z,102699
2017-05-15T09:53:28.564Z,102698
2017-05-15T09:55:57.041Z,102699
2017-05-15T09:58:25.548Z,102715
2017-05-15T10:00:54.740Z,102713
2017-05-15T10:03:23.953Z,102715
2017-05-15T10:05:52.454Z,102715
2017-05-15T10:08:20.930Z,102717
2017-05-15T10:10:49.394Z,102726
2017-05-15T10:13:17.929Z,102717
2017-05-15T10:15:46.387Z,102718
2017-05-15T10:18:14.908Z,102725
2017-05-15T10:20:43.427Z,102727
2017-05-15T10:23:11.875Z,102719
2017-05-15T10:25:40.318Z,102721
2017-05-15T10:28:08.892Z,102722
2017-05-15T10:30:37.359Z,102721
2017-05-15T10:33:05.813Z,102710
2017-05-15T10:35:35.074Z,102703
2017-05-15T10:38:03.529Z,102717
2017-05-15T10:40:31.985Z,102722
2017-05-15T10:43:00.927Z,102723
2017-05-15T10:45:29.861Z,102718
2017-05-15T10:47:59.050Z,102728
2017-05-15T10:50:27.521Z,102719
2017-05-15T10:52:57.198Z,102717
2017-05-15T10:55:26.133Z,102720
2017-05-15T10:57:55.842Z,102713
2017-05-15T11:00:25.520Z,102717
2017-05-15T11:02:54.436Z,102716
2017-05-15T11:05:24.114Z,102717
2017-05-15T11:07:53.027Z,102721
2017-05-15T11:10:21.964Z,102712
2017-05-15T11:12:50.899Z,102716
2017-05-15T11:15:19.835Z,102718
2017-05-15T11:17:48.773Z,102700
2017-05-15T11:20:17.745Z,102714
2017-05-15T11:22:46.678Z,102713
2017-05-15T11:25:15.617Z,102711
2017-05-15T11:27:44.562Z,102711
2017-05-15T11:30:13.475Z,102705
2017-05-15T11:32:43.130Z,102703
2017-05-15T11:35:12.077Z,102701
2017-05-15T11:37:41.732Z,102696
2017-05-15T11:40:10.645Z,102689
2017-05-15T11:42:39.612Z,102700
2017-05-15T11:45:08.541Z,102703
2017-05-15T11:47:37.455Z,102720
2017-05-15T11:50:07.161Z,102731
2017-05-15T11:52:36.838Z,102722
2017-05-15T11:55:05.758Z,102731
2017-05-15T11:57:35.471Z,102727
2017-05-15T12:00:05.147Z,102725
2017-05-15T12:02:34.068Z,102724
2017-05-15T12:05:03.020Z,102719
2017-05-15T12:07:31.955Z,102728
2017-05-15T12:10:01.617Z,102732
2017-05-15T12:12:30.575Z,102729
2017-05-15T12:14:59.490Z,102742
2017-05-15T12:17:28.473Z,102727
2017-05-15T12:19:57.430Z,102741
2017-05-15T12:22:25.904Z,102728
2017-05-15T12:24:54.828Z,102734
2017-05-15T12:27:23.798Z,102731
2017-05-15T12:29:52.246Z,102729
2017-05-15T12:32:21.312Z,102730
2017-05-15T12:34:50.537Z,102730
2017-05-15T12:37:19.458Z,102728
2017-05-15T12:39:47.910Z,102729
2017-05-15T12:42:16.392Z,102724
2017-05-15T12:44:44.853Z,102736
2017-05-15T12:47:14.068Z,102730
2017-05-15T12:49:42.557Z,102724
2017-05-15T12:52:11.003Z,102726
2017-05-15T12:54:40.221Z,102719
2017-05-15T12:57:09.166Z,102722
2017-05-15T12:59:37.640Z,102717
2017-05-15T13:02:06.106Z,102716
2017-05-15T13:04:34.604Z,102712
2017-05-15T13:07:03.070Z,102712
2017-05-15T13:09:31.544Z,102724
2017-05-15T13:12:00.045Z,102733
2017-05-15T13:14:28.527Z,102718
2017-05-15T13:16:56.974Z,102718
2017-05-15T13:19:25.456Z,102719
2017-05-15T13:21:54.396Z,102717
2017-05-15T13:24:24.064Z,102717
2017-05-15T13:26:53.024Z,102724
2017-05-15T13:29:21.968Z,102723
2017-05-15T13:31:50.886Z,102730
2017-05-15T13:34:20.575Z,102722
2017-05-15T13:36:49.509Z,102720
2017-05-15T13:39:18.445Z,102717
2017-05-15T13:41:47.394Z,102726
2017-05-15T13:44:16.318Z,102717
2017-05-15T13:46:45.239Z,102720
2017-05-15T13:49:14.187Z,102719
2017-05-15T13:51:43.113Z,102710
2017-05-15T13:54:12.047Z,102712
2017-05-15T13:56:41.788Z,102725
2017-05-15T13:59:10.720Z,102722
2017-05-15T14:01:39.634Z,102718
2017-05-15T14:04:09.336Z,102709
2017-05-15T14:06:38.254Z,102712
2017-05-15T14:09:07.924Z,102711
2017-05-15T14:11:36.871Z,102709
2017-05-15T14:14:05.782Z,102706
2017-05-15T14:16:34.720Z,102721
2017-05-15T14:19:03.682Z,102713
2017-05-15T14:21:32.616Z,102708
2017-05-15T14:24:02.292Z,102705
2017-05-15T14:26:31.235Z,102699
2017-05-15T14:29:00.168Z,102696
2017-05-15T14:31:29.106Z,102697
2017-05-15T14:33:58.813Z,102697
2017-05-15T14:36:28.485Z,102702
2017-05-15T14:38:57.420Z,102697
2017-05-15T14:41:27.117Z,102695
2017-05-15T14:43:56.773Z,102686
2017-05-15T14:46:25.716Z,102681
2017-05-15T14:48:55.025Z,102682
2017-05-15T14:51:24.708Z,102681
2017-05-15T14:53:53.640Z,102683
2017-05-15T14:56:22.584Z,102689
2017-05-15T14:58:51.520Z,102688
2017-05-15T15:01:21.196Z,102678
2017-05-15T15:03:50.142Z,102678
2017-05-15T15:06:19.058Z,102690
2017-05-15T15:08:47.978Z,102680
2017-05-15T15:11:16.928Z,102677
2017-05-15T15:13:45.873Z,102674
2017-05-15T15:16:14.790Z,102680
2017-05-15T15:18:43.737Z,102673
2017-05-15T15:21:12.651Z,102669
2017-05-15T15:23:41.583Z,102676
2017-05-15T15:26:11.263Z,102676
2017-05-15T15:28:40.226Z,102679
2017-05-15T15:31:09.142Z,102675
2017-05-15T15:33:38.101Z,102683
2017-05-15T15:36:07.023Z,102677
2017-05-15T15:38:35.962Z,102682
2017-05-15T15:41:04.925Z,102691
2017-05-15T15:43:33.854Z,102679
2017-05-15T15:46:02.789Z,102668
2017-05-15T15:48:31.758Z,102673
2017-05-15T15:51:00.670Z,102670
2017-05-15T15:53:29.604Z,102661
2017-05-15T15:55:59.288Z,102666
2017-05-15T15:58:28.206Z,102665
2017-05-15T16:00:57.857Z,102663
2017-05-15T16:03:26.830Z,102664
2017-05-15T16:05:55.764Z,102662
2017-05-15T16:08:24.703Z,102671
2017-05-15T16:10:53.674Z,102667
2017-05-15T16:13:23.354Z,102673
2017-05-15T16:15:52.270Z,102671
2017-05-15T16:18:21.218Z,102675
2017-05-15T16:20:50.150Z,102672
2017-05-15T16:23:19.087Z,102673
2017-05-15T16:25:48.052Z,102671
2017-05-15T16:28:17.733Z,102673
2017-05-15T16:30:46.667Z,102655
2017-05-15T16:33:15.617Z,102661
2017-05-15T16:35:44.530Z,102660
2017-05-15T16:38:13.449Z,102663
2017-05-15T16:40:42.411Z,102658
2017-05-15T16:43:11.352Z,102661
2017-05-15T16:45:40.271Z,102662
2017-05-15T16:48:09.227Z,102662
2017-05-15T16:50:38.162Z,102658
2017-05-15T16:53:07.101Z,102659
2017-05-15T16:55:36.081Z,102655
2017-05-15T16:58:05.745Z,102659
2017-05-15T17:00:34.662Z,102663
2017-05-15T17:03:03.625Z,102667
2017-05-15T17:05:32.563Z,102670
2017-05-15T17:08:02.325Z,102671
2017-05-15T17:10:31.323Z,102672
2017-05-15T17:13:00.296Z,102675
2017-05-15T17:15:29.320Z,102675
2017-05-15T17:17:58.397Z,102673
2017-05-15T17:20:27.333Z,102673
2017-05-15T17:22:56.271Z,102672
2017-05-15T17:25:25.219Z,102669
2017-05-15T17:27:54.188Z,102680
2017-05-15T17:30:23.097Z,102668
2017-05-15T17:32:52.063Z,102676
2017-05-15T17:35:20.984Z,102673
2017-05-15T17:37:49.903Z,102671
2017-05-15T17:40:19.587Z,102673
2017-05-15T17:42:48.521Z,102672
2017-05-15T17:45:17.433Z,102674
2017-05-15T17:47:46.382Z,102678
2017-05-15T17:50:16.042Z,102672
2017-05-15T17:52:44.962Z,102667
2017-05-15T17:55:13.930Z,102665
2017-05-15T17:57:42.845Z,102669
2017-05-15T18:00:11.776Z,102663
2017-05-15T18:02:40.719Z,102665
2017-05-15T18:05:09.648Z,102668
2017-05-15T18:07:39.298Z,102678
2017-05-15T18:10:08.261Z,102669
2017-05-15T18:12:37.913Z,102668
2017-05-15T18:15:06.846Z,102662
2017-05-15T18:17:36.543Z,102658
2017-05-15T18:20:05.486Z,102672
2017-05-15T18:22:34.421Z,102676
2017-05-15T18:25:03.366Z,102674
2017-05-15T18:27:32.277Z,102673
2017-05-15T18:30:01.220Z,102670
2017-05-15T18:32:30.926Z,102684
2017-05-15T18:34:59.838Z,102686
2017-05-15T18:37:29.509Z,102690
2017-05-15T18:39:58.536Z,102696
2017-05-15T18:42:28.202Z,102700
2017-05-15T18:44:57.145Z,102687
2017-05-15T18:47:26.830Z,102696
2017-05-15T18:49:55.774Z,102696
2017-05-15T18:52:24.709Z,102696
2017-05-15T18:54:53.679Z,102696
2017-05-15T18:57:22.140Z,102701
2017-05-15T18:59:50.616Z,102702
2017-05-15T19:02:19.133Z,102703
2017-05-15T19:04:47.596Z,102699
2017-05-15T19:07:16.064Z,102700
2017-05-15T19:09:44.550Z,102707
2017-05-15T19:12:13.016Z,102710
2017-05-15T19:14:42.225Z,102713
2017-05-15T19:17:10.728Z,102718
2017-05-15T19:19:39.178Z,102710
2017-05-15T19:22:08.380Z,102717
2017-05-15T19:24:37.606Z,102717
2017-05-15T19:27:06.061Z,102725
2017-05-15T19:29:35.271Z,102726
2017-05-15T19:32:03.749Z,102728
2017-05-15T19:34:32.201Z,102719
2017-05-15T19:37:00.668Z,102717
2017-05-15T19:39:29.146Z,102711
2017-05-15T19:41:57.600Z,102712
2017-05-15T19:44:26.058Z,102724
2017-05-15T19:46:54.597Z,102724
2017-05-15T19:49:23.037Z,102716
2017-05-15T19:51:51.509Z,102724
2017-05-15T19:54:20.005Z,102724
2017-05-15T19:56:48.478Z,102727
2017-05-15T19:59:16.948Z,102723
2017-05-15T20:01:45.465Z,102717
2017-05-15T20:04:13.928Z,102720
2017-05-15T20:06:42.385Z,102717
2017-05-15T20:09:11.606Z,102728
2017-05-15T20:11:40.057Z,102720
2017-05-15T20:14:08.974Z,102725
2017-05-15T20:16:37.457Z,102721
2017-05-15T20:19:05.924Z,102718
2017-05-15T20:21:34.839Z,102717
2017-05-15T20:24:03.804Z,102716
2017-05-15T20:26:32.737Z,102717
2017-05-15T20:29:01.670Z,102714
2017-05-15T20:31:31.370Z,102719
2017-05-15T20:33:59.849Z,102719
2017-05-15T20:36:28.340Z,102725
2017-05-15T20:38:56.821Z,102721
2017-05-15T20:41:25.264Z,102724
2017-05-15T20:43:53.717Z,102733
2017-05-15T20:46:22.221Z,102728
2017-05-15T20:48:51.153Z,102726
2017-05-15T20:51:19.601Z,102727
2017-05-15T20:53:48.115Z,102717
2017-05-15T20:56:16.569Z,102721
2017-05-15T20:58:45.021Z,102722
2017-05-15T21:01:13.527Z,102716
2017-05-15T21:03:42.081Z,102718
2017-05-15T21:06:11.277Z,102715
2017-05-15T21:08:40.518Z,102717
2017-05-15T21:11:08.975Z,102710
2017-05-15T21:13:37.425Z,102712
2017-05-15T21:16:05.919Z,102710
2017-05-15T21:18:35.245Z,102708
2017-05-15T21:21:03.716Z,102704
2017-05-15T21:23:32.615Z,102704
2017-05-15T21:26:01.531Z,102701
2017-05-15T21:28:29.986Z,102702
2017-05-15T21:30:58.487Z,102704
2017-05-15T21:33:26.937Z,102707
2017-05-15T21:35:56.145Z,102708
2017-05-15T21:38:24.641Z,102707
2017-05-15T21:40:53.115Z,102705
2017-05-15T21:43:21.600Z,102715
2017-05-15T21:45:50.103Z,102722
2017-05-15T21:48:18.568Z,102723
2017-05-15T21:50:47.021Z,102721
2017-05-15T21:53:16.389Z,102724
2017-05-15T21:55:44.885Z,102715
2017-05-15T21:58:13.375Z,102711
2017-05-15T22:00:41.851Z,102724
2017-05-15T22:03:10.302Z,102719
2017-05-15T22:05:38.777Z,102717
2017-05-15T22:08:08.004Z,102715
2017-05-15T22:10:36.492Z,102716
2017-05-15T22:13:05.017Z,102709
2017-05-15T22:15:33.477Z,102712
2017-05-15T22:18:01.957Z,102710
2017-05-15T22:20:30.429Z,102711
2017-05-15T22:22:59.399Z,102713
2017-05-15T22:25:28.406Z,102711
2017-05-15T22:27:56.854Z,102717
2017-05-15T22:30:25.836Z,102714
2017-05-15T22:32:54.773Z,102715
2017-05-15T22:35:24.172Z,102717
2017-05-15T22:37:53.137Z,102708
2017-05-15T22:40:21.604Z,102712
2017-05-15T22:42:56.528Z,102716
2017-05-15T22:45:25.014Z,102709
2017-05-15T22:47:53.516Z,102706
2017-05-15T22:50:22.569Z,102713
2017-05-15T22:52:51.132Z,102708
2017-05-15T22:55:19.753Z,102708
2017-05-15T22:57:48.238Z,102709
2017-05-15T23:00:16.749Z,102710
2017-05-15T23:02:45.197Z,102711
2017-05-15T23:05:13.831Z,102707
2017-05-15T23:07:43.073Z,102713
2017-05-15T23:10:11.521Z,102712
2017-05-15T23:12:40.007Z,102710
2017-05-15T23:15:08.488Z,102711
2017-05-15T23:17:36.953Z,102716
2017-05-15T23:20:05.467Z,102705
2017-05-15T23:22:34.654Z,102712
2017-05-15T23:25:03.101Z,102702
2017-05-15T23:27:32.857Z,102703
2017-05-15T23:30:01.774Z,102706
2017-05-15T23:32:30.707Z,102707
2017-05-15T23:34:59.665Z,102707
2017-05-15T23:37:29.172Z,102704
2017-05-15T23:39:58.143Z,102701
2017-05-15T23:42:26.646Z,102702
2017-05-15T23:44:55.124Z,102702
2017-05-15T23:47:23.598Z,102702
2017-05-15T23:49:52.105Z,102708
2017-05-15T23:52:20.566Z,102705
2017-05-15T23:54:49.178Z,102700
2017-05-15T23:57:17.683Z,102706
2017-05-15T23:59:46.881Z,102712
